Time;durP1;ratioP1;P1;durP2;ratioP2;P2;SDS_P1;SDS_P2;PMS_P1;PMS_P2;Temp;Humidity;BMP_temperature;BMP_pressure;BME280_temperature;BME280_humidity;BME280_pressure;Samples;Min_cycle;Max_cycle;Signal;HPM_P1;HPM_P2
2023/07/27 00:00:59;;;;;;;10.35;4.78;;;11.60;99.90;;;;;;5117775;27;20331;-65
2023/07/27 00:03:25;;;;;;;;;;;11.70;99.90;;;;;;5116840;28;20392;-66
2023/07/27 00:05:51;;;;;;;8.15;4.90;;;11.70;99.90;;;;;;5113105;28;19920;-66
2023/07/27 00:08:16;;;;;;;6.10;4.50;;;11.70;99.90;;;;;;5093294;28;20043;-68
2023/07/27 00:10:42;;;;;;;;;;;11.70;99.90;;;;;;5091299;28;20035;-64
2023/07/27 00:13:07;;;;;;;16.13;4.93;;;11.70;99.90;;;;;;5109339;28;19920;-66
2023/07/27 00:15:33;;;;;;;;;;;11.80;99.90;;;;;;5105158;28;20068;-65
2023/07/27 00:17:59;;;;;;;9.38;4.55;;;11.80;99.90;;;;;;5111768;27;19963;-65
2023/07/27 00:20:24;;;;;;;12.95;4.47;;;11.80;99.90;;;;;;5098327;28;20069;-65
2023/07/27 00:22:50;;;;;;;5.90;3.85;;;11.80;99.90;;;;;;5101167;28;20039;-65
2023/07/27 00:25:16;;;;;;;7.10;4.40;;;11.90;99.90;;;;;;5105359;28;20031;-65
2023/07/27 00:27:41;;;;;;;;;;;11.90;99.90;;;;;;5077729;28;20111;-65
2023/07/27 00:30:07;;;;;;;9.55;4.28;;;11.90;99.90;;;;;;5094906;28;20607;-65
2023/07/27 00:32:33;;;;;;;8.00;4.82;;;11.90;99.90;;;;;;5083630;28;20040;-64
2023/07/27 00:34:59;;;;;;;;;;;12.00;99.90;;;;;;5107370;28;20043;-64
2023/07/27 00:37:25;;;;;;;7.32;4.47;;;12.00;99.90;;;;;;5104850;28;19919;-65
2023/07/27 00:39:51;;;;;;;8.38;3.75;;;12.00;99.90;;;;;;5090330;28;20518;-65
2023/07/27 00:42:17;;;;;;;;;;;12.00;99.90;;;;;;5087054;27;20028;-65
2023/07/27 00:44:42;;;;;;;7.57;4.10;;;12.00;99.90;;;;;;5100780;27;19923;-65
2023/07/27 00:47:08;;;;;;;;;;;12.00;99.90;;;;;;5106025;27;20052;-65
2023/07/27 00:49:34;;;;;;;5.72;3.47;;;12.00;99.90;;;;;;5090977;28;19920;-66
2023/07/27 00:52:05;;;;;;;7.72;4.05;;;12.00;99.90;;;;;;5095893;28;20032;-66
2023/07/27 00:54:32;;;;;;;9.55;4.32;;;12.00;99.90;;;;;;5107445;28;20479;-67
2023/07/27 00:56:58;;;;;;;7.50;4.07;;;12.00;99.90;;;;;;5104435;28;20081;-66
2023/07/27 00:59:23;;;;;;;;;;;12.00;99.90;;;;;;5087858;28;20487;-65
2023/07/27 01:01:49;;;;;;;6.72;3.97;;;12.00;99.90;;;;;;5093358;27;20378;-65
2023/07/27 01:04:15;;;;;;;6.40;3.97;;;12.00;99.90;;;;;;5099750;28;20111;-68
2023/07/27 01:06:40;;;;;;;;;;;12.00;99.90;;;;;;5093195;28;20044;-66
2023/07/27 01:09:06;;;;;;;8.75;4.18;;;12.10;99.90;;;;;;5106905;28;19998;-64
2023/07/27 01:12:00;;;;;;;9.30;3.92;;;12.10;99.90;;;;;;5100894;28;20499;-65
2023/07/27 01:14:31;;;;;;;5.57;3.08;;;12.10;99.90;;;;;;5104281;28;20040;-66
2023/07/27 01:17:06;;;;;;;7.30;3.58;;;12.10;99.90;;;;;;5104256;27;20043;-65
2023/07/27 01:19:53;;;;;;;5.80;3.90;;;12.10;99.90;;;;;;5094833;28;20039;-66
2023/07/27 01:22:31;;;;;;;7.85;3.78;;;12.10;99.90;;;;;;5083320;28;20032;-65
2023/07/27 01:25:17;;;;;;;7.72;3.80;;;12.10;99.90;;;;;;5091565;28;20135;-65
2023/07/27 01:27:54;;;;;;;5.47;3.20;;;12.10;99.90;;;;;;5098468;28;20126;-65
2023/07/27 01:30:49;;;;;;;7.03;3.60;;;12.10;99.90;;;;;;5103297;28;20055;-65
2023/07/27 01:33:21;;;;;;;11.63;3.97;;;12.10;99.90;;;;;;5103242;27;20039;-65
2023/07/27 01:36:08;;;;;;;5.35;3.20;;;12.10;99.90;;;;;;5102662;28;20751;-66
2023/07/27 01:38:39;;;;;;;4.90;3.20;;;12.10;99.90;;;;;;5086571;28;20536;-65
2023/07/27 01:41:06;;;;;;;5.50;3.03;;;12.10;99.90;;;;;;5098808;28;20122;-65
2023/07/27 01:43:33;;;;;;;6.78;3.53;;;12.10;99.90;;;;;;5107597;27;20894;-65
2023/07/27 01:46:00;;;;;;;7.50;3.25;;;12.10;99.90;;;;;;5093898;28;20135;-67
2023/07/27 01:48:27;;;;;;;6.90;3.45;;;12.10;99.90;;;;;;5096838;28;20042;-63
2023/07/27 01:50:54;;;;;;;11.20;3.20;;;12.10;99.90;;;;;;5098293;28;20153;-65
2023/07/27 01:53:22;;;;;;;5.68;3.15;;;12.10;99.90;;;;;;5094798;28;20094;-65
2023/07/27 01:55:49;;;;;;;7.45;2.92;;;12.10;99.90;;;;;;5084039;28;20090;-65
2023/07/27 01:58:20;;;;;;;6.22;3.17;;;12.00;99.90;;;;;;5097601;28;20143;-65
2023/07/27 02:00:46;;;;;;;6.72;3.38;;;12.10;99.90;;;;;;5096891;27;20064;-65
2023/07/27 02:03:12;;;;;;;5.03;2.55;;;12.10;99.90;;;;;;5098223;28;20585;-65
2023/07/27 02:05:37;;;;;;;;;;;12.10;99.90;;;;;;5092285;28;20040;-66
2023/07/27 02:08:03;;;;;;;4.25;2.88;;;12.10;99.90;;;;;;5099456;28;20311;-65
2023/07/27 02:10:30;;;;;;;;;;;12.10;99.90;;;;;;5103170;28;20071;-65
2023/07/27 02:13:04;;;;;;;;;;;12.10;99.90;;;;;;5104131;28;19920;-65
2023/07/27 02:15:38;;;;;;;4.55;2.97;;;12.10;99.90;;;;;;5105233;28;19993;-64
2023/07/27 02:18:10;;;;;;;6.70;2.90;;;12.10;99.90;;;;;;5086109;28;20031;-67
2023/07/27 02:20:37;;;;;;;4.85;3.03;;;12.10;99.90;;;;;;5099612;28;20788;-65
2023/07/27 02:23:05;;;;;;;4.68;2.88;;;12.10;99.90;;;;;;5098446;28;20040;-65
2023/07/27 02:25:31;;;;;;;5.43;2.75;;;12.10;99.90;;;;;;5085104;28;20040;-65
2023/07/27 02:27:57;;;;;;;4.78;3.17;;;12.20;99.90;;;;;;5090638;28;20028;-68
2023/07/27 02:30:23;;;;;;;;;;;12.20;99.90;;;;;;5100794;28;20062;-67
2023/07/27 02:32:48;;;;;;;5.70;3.17;;;12.20;99.90;;;;;;5091238;28;19927;-67
2023/07/27 02:35:14;;;;;;;;;;;12.20;99.90;;;;;;5087068;28;20110;-64
2023/07/27 02:37:39;;;;;;;5.07;2.42;;;12.10;99.90;;;;;;5104531;28;19922;-66
2023/07/27 02:40:05;;;;;;;;;;;12.10;99.90;;;;;;5096573;28;20035;-66
2023/07/27 02:42:31;;;;;;;4.30;2.58;;;12.10;99.90;;;;;;5095687;28;19912;-66
2023/07/27 02:44:57;;;;;;;;;;;12.20;99.90;;;;;;5065372;28;20464;-66
2023/07/27 02:47:22;;;;;;;11.43;2.83;;;12.20;99.90;;;;;;5104943;28;20620;-66
2023/07/27 02:49:48;;;;;;;;;;;12.30;99.90;;;;;;5096632;28;20039;-68
2023/07/27 02:52:13;;;;;;;5.57;3.05;;;12.30;99.90;;;;;;5103058;28;19926;-66
2023/07/27 02:54:39;;;;;;;;;;;12.30;99.90;;;;;;5104888;28;20031;-67
2023/07/27 02:57:05;;;;;;;6.50;3.03;;;12.30;99.90;;;;;;5096706;28;19919;-66
2023/07/27 02:59:30;;;;;;;6.28;2.90;;;12.30;99.90;;;;;;5088610;28;20128;-65
2023/07/27 03:01:56;;;;;;;;;;;12.30;99.90;;;;;;5101327;28;20043;-66
2023/07/27 03:04:22;;;;;;;11.80;2.53;;;12.30;99.90;;;;;;5077896;28;19923;-65
2023/07/27 03:06:48;;;;;;;6.00;2.70;;;12.40;99.90;;;;;;5098314;28;20385;-68
2023/07/27 03:09:14;;;;;;;;;;;12.40;99.90;;;;;;5084190;28;20046;-68
2023/07/27 03:11:39;;;;;;;6.63;3.15;;;12.40;99.90;;;;;;5099837;28;20458;-67
2023/07/27 03:14:05;;;;;;;;;;;12.40;99.90;;;;;;5088072;28;20492;-66
2023/07/27 03:16:32;;;;;;;6.20;2.65;;;12.40;99.90;;;;;;5100188;28;20008;-64
2023/07/27 03:18:58;;;;;;;7.85;2.33;;;12.50;99.90;;;;;;5096183;28;20044;-66
2023/07/27 03:21:24;;;;;;;9.93;3.47;;;12.50;99.90;;;;;;5083174;28;20058;-66
2023/07/27 03:23:50;;;;;;;;;;;12.40;99.90;;;;;;5090105;28;20492;-65
2023/07/27 03:26:16;;;;;;;8.88;2.63;;;12.40;99.90;;;;;;5104468;28;20011;-65
2023/07/27 03:28:42;;;;;;;8.40;3.38;;;12.50;99.90;;;;;;5099084;28;20745;-65
2023/07/27 03:31:20;;;;;;;;;;;12.50;99.90;;;;;;5084976;28;20039;-66
2023/07/27 03:33:47;;;;;;;11.80;3.85;;;12.60;99.90;;;;;;5102256;28;20614;-65
2023/07/27 03:36:15;;;;;;;4.90;2.80;;;12.60;99.90;;;;;;5104571;28;20499;-64
2023/07/27 03:38:40;;;;;;;8.60;3.58;;;12.70;99.90;;;;;;5081058;28;20044;-65
2023/07/27 03:41:06;;;;;;;;;;;12.70;99.90;;;;;;5092671;28;20081;-64
2023/07/27 03:43:32;;;;;;;7.43;2.97;;;12.80;99.90;;;;;;5091762;28;19927;-66
2023/07/27 03:45:57;;;;;;;;;;;12.80;99.90;;;;;;5085719;28;20404;-66
2023/07/27 03:48:23;;;;;;;6.65;2.83;;;12.90;99.90;;;;;;5086469;28;19916;-65
2023/07/27 03:50:49;;;;;;;;;;;12.90;99.90;;;;;;5099466;28;20036;-66
2023/07/27 03:53:14;;;;;;;9.80;3.45;;;12.90;99.90;;;;;;5097880;28;20422;-66
2023/07/27 03:55:40;;;;;;;;;;;12.90;99.90;;;;;;5092422;28;20063;-66
2023/07/27 03:58:06;;;;;;;4.93;2.83;;;12.90;99.90;;;;;;5088110;28;20019;-66
2023/07/27 04:00:31;;;;;;;;;;;12.90;99.90;;;;;;5077081;28;20115;-65
2023/07/27 04:02:57;;;;;;;4.03;2.58;;;12.90;99.90;;;;;;5088527;28;20287;-66
2023/07/27 04:05:23;;;;;;;;;;;12.90;99.90;;;;;;5097493;28;20070;-66
2023/07/27 04:07:51;;;;;;;7.25;2.90;;;12.90;99.90;;;;;;5107739;28;19920;-65
2023/07/27 04:10:16;;;;;;;5.10;2.85;;;13.00;99.90;;;;;;5103162;28;20569;-66
2023/07/27 04:12:42;;;;;;;;;;;13.00;99.90;;;;;;5100105;28;20040;-66
2023/07/27 04:15:08;;;;;;;6.43;2.80;;;13.00;99.90;;;;;;5099904;28;20070;-65
2023/07/27 04:17:34;;;;;;;5.78;2.95;;;13.10;99.90;;;;;;5110631;28;20679;-63
2023/07/27 04:19:59;;;;;;;;;;;13.00;99.90;;;;;;5108641;28;20130;-64
2023/07/27 04:22:25;;;;;;;6.65;2.65;;;13.10;99.90;;;;;;5110568;28;19919;-66
2023/07/27 04:24:51;;;;;;;;;;;13.10;99.90;;;;;;5111455;28;20035;-65
2023/07/27 04:27:16;;;;;;;7.00;2.88;;;13.00;99.90;;;;;;5112078;28;19926;-65
2023/07/27 04:29:42;;;;;;;;;;;13.10;99.90;;;;;;5108216;28;20750;-65
2023/07/27 04:32:08;;;;;;;6.90;2.55;;;13.10;99.90;;;;;;5101926;28;20815;-65
2023/07/27 04:34:33;;;;;;;;;;;13.10;99.90;;;;;;5108591;28;20039;-64
2023/07/27 04:36:59;;;;;;;6.97;2.78;;;13.10;99.90;;;;;;5105137;28;20276;-65
2023/07/27 04:39:25;;;;;;;;;;;13.10;99.90;;;;;;5109470;28;20130;-63
2023/07/27 04:41:51;;;;;;;6.20;2.85;;;13.10;99.90;;;;;;5100575;28;19926;-66
2023/07/27 04:44:16;;;;;;;7.20;2.80;;;13.10;99.90;;;;;;5090935;28;20036;-67
2023/07/27 04:46:42;;;;;;;;;;;13.10;99.90;;;;;;5106499;28;20044;-67
2023/07/27 04:49:07;;;;;;;7.75;3.13;;;13.10;99.90;;;;;;5090023;28;19942;-66
2023/07/27 04:51:33;;;;;;;6.57;3.08;;;13.00;99.90;;;;;;5085862;28;20067;-65
2023/07/27 04:53:59;;;;;;;5.97;3.40;;;13.00;99.90;;;;;;5108402;28;20118;-66
2023/07/27 04:56:25;;;;;;;;;;;13.00;99.90;;;;;;5105215;28;20119;-66
2023/07/27 04:58:51;;;;;;;5.93;3.47;;;13.00;99.90;;;;;;5092587;28;19915;-66
2023/07/27 05:01:16;;;;;;;;;;;12.90;99.90;;;;;;5087829;28;20570;-67
2023/07/27 05:03:42;;;;;;;7.45;2.90;;;12.90;99.90;;;;;;5083988;28;19916;-67
2023/07/27 05:06:07;;;;;;;;;;;12.90;99.90;;;;;;5096635;27;20048;-66
2023/07/27 05:08:33;;;;;;;5.68;2.60;;;12.90;99.90;;;;;;5088652;28;19984;-66
2023/07/27 05:10:59;;;;;;;;;;;12.80;99.90;;;;;;5099371;28;20109;-67
2023/07/27 05:13:24;;;;;;;7.70;3.35;;;12.80;99.90;;;;;;5098032;28;20038;-66
2023/07/27 05:15:50;;;;;;;;;;;12.80;99.90;;;;;;5092448;28;20112;-67
2023/07/27 05:18:15;;;;;;;8.80;3.13;;;12.90;99.90;;;;;;5093863;28;20395;-66
2023/07/27 05:20:42;;;;;;;;;;;12.80;99.90;;;;;;5095692;27;20063;-65
2023/07/27 05:23:07;;;;;;;7.60;3.22;;;12.80;99.90;;;;;;5106442;28;19923;-66
2023/07/27 05:25:33;;;;;;;4.70;2.92;;;12.80;99.90;;;;;;5095153;28;20044;-66
2023/07/27 05:27:59;;;;;;;;;;;12.80;99.90;;;;;;5085663;28;20100;-66
2023/07/27 05:30:24;;;;;;;21.60;4.18;;;12.80;99.90;;;;;;5082425;28;19919;-67
2023/07/27 05:32:50;;;;;;;6.10;3.38;;;12.80;99.90;;;;;;5093607;28;20078;-66
2023/07/27 05:35:15;;;;;;;;;;;12.80;99.90;;;;;;5106695;28;20044;-66
2023/07/27 05:37:46;;;;;;;11.68;3.72;;;12.70;99.90;;;;;;5104242;27;19922;-66
2023/07/27 05:40:13;;;;;;;10.25;3.70;;;12.70;99.90;;;;;;5104221;28;20039;-67
2023/07/27 05:42:39;;;;;;;7.82;3.50;;;12.70;99.90;;;;;;5096489;28;20091;-66
2023/07/27 05:45:05;;;;;;;;;;;12.70;99.90;;;;;;5102989;28;20487;-66
2023/07/27 05:47:30;;;;;;;12.88;3.65;;;12.70;99.90;;;;;;5076801;28;19920;-66
2023/07/27 05:49:58;;;;;;;;;;;12.60;99.90;;;;;;5094768;28;20062;-67
2023/07/27 05:52:23;;;;;;;;;;;12.60;99.90;;;;;;5090861;28;19996;-69
2023/07/27 05:54:49;;;;;;;9.73;3.42;;;12.60;99.90;;;;;;5082383;28;20391;-65
2023/07/27 05:57:15;;;;;;;;;;;12.70;99.90;;;;;;5093115;28;20501;-67
2023/07/27 05:59:40;;;;;;;6.18;3.47;;;12.70;99.90;;;;;;5096663;28;20385;-67
2023/07/27 06:02:06;;;;;;;;;;;12.70;99.90;;;;;;5092536;28;20131;-67
2023/07/27 06:04:31;;;;;;;8.02;4.10;;;12.70;99.90;;;;;;5084898;28;19919;-65
2023/07/27 06:06:58;;;;;;;;;;;12.70;99.90;;;;;;5084847;28;20082;-66
2023/07/27 06:09:24;;;;;;;6.45;3.30;;;12.70;99.90;;;;;;5082674;28;19959;-69
2023/07/27 06:11:51;;;;;;;11.48;3.58;;;12.70;99.90;;;;;;5072602;28;20681;-68
2023/07/27 06:14:17;;;;;;;9.38;3.55;;;12.80;99.90;;;;;;5088941;28;20696;-64
2023/07/27 06:16:42;;;;;;;;;;;12.70;99.90;;;;;;5076252;28;20043;-63
2023/07/27 06:19:08;;;;;;;9.88;3.40;;;12.70;99.90;;;;;;5086934;28;19966;-66
2023/07/27 06:21:34;;;;;;;4.60;3.28;;;12.70;99.90;;;;;;5084538;28;20864;-67
2023/07/27 06:23:59;;;;;;;6.97;3.10;;;12.80;99.90;;;;;;5086106;28;20048;-64
2023/07/27 06:26:26;;;;;;;;;;;12.80;99.90;;;;;;5085027;28;20074;-66
2023/07/27 06:28:51;;;;;;;8.18;3.20;;;12.80;99.90;;;;;;5083520;28;19919;-65
2023/07/27 06:31:17;;;;;;;;;;;12.90;99.90;;;;;;5086019;28;20100;-65
2023/07/27 06:33:44;;;;;;;5.63;2.83;;;12.90;99.90;;;;;;5085400;28;19920;-69
2023/07/27 06:36:11;;;;;;;8.48;3.38;;;12.90;99.90;;;;;;5085721;28;20044;-67
2023/07/27 06:38:38;;;;;;;6.75;3.30;;;12.90;99.90;;;;;;5101111;28;20082;-69
2023/07/27 06:41:04;;;;;;;7.25;3.22;;;12.90;99.90;;;;;;5093097;28;20919;-66
2023/07/27 06:43:30;;;;;;;6.10;3.05;;;13.00;99.90;;;;;;5098354;28;20039;-65
2023/07/27 06:45:56;;;;;;;;;;;13.00;99.90;;;;;;5083532;28;20036;-67
2023/07/27 06:48:22;;;;;;;8.45;3.78;;;12.90;99.90;;;;;;5092588;28;19920;-66
2023/07/27 06:50:47;;;;;;;5.57;3.05;;;13.00;99.90;;;;;;5086332;28;20200;-66
2023/07/27 06:53:13;;;;;;;6.00;3.17;;;12.90;99.90;;;;;;5100607;28;20039;-66
2023/07/27 06:55:38;;;;;;;;;;;12.90;99.90;;;;;;5105310;28;20070;-66
2023/07/27 06:58:04;;;;;;;5.82;3.42;;;13.00;99.90;;;;;;5086889;28;19922;-65
2023/07/27 07:00:31;;;;;;;;;;;12.90;99.90;;;;;;5079787;28;20036;-66
2023/07/27 07:02:58;;;;;;;8.32;2.58;;;12.90;99.90;;;;;;5094542;28;20427;-65
2023/07/27 07:05:24;;;;;;;5.65;3.42;;;12.90;99.90;;;;;;5105399;28;20517;-64
2023/07/27 07:07:49;;;;;;;;;;;12.80;99.90;;;;;;5104796;28;20077;-67
2023/07/27 07:10:15;;;;;;;4.47;2.90;;;12.90;99.90;;;;;;5098549;28;19916;-65
2023/07/27 07:12:41;;;;;;;;;;;12.90;99.90;;;;;;5102124;28;20043;-65
2023/07/27 07:15:08;;;;;;;7.18;2.45;;;12.90;99.90;;;;;;5093287;28;19922;-65
2023/07/27 07:17:33;;;;;;;4.88;2.75;;;12.90;99.90;;;;;;5100032;28;20047;-66
2023/07/27 07:19:59;;;;;;;;;;;12.90;99.90;;;;;;5094413;28;20035;-66
2023/07/27 07:22:25;;;;;;;6.80;2.75;;;12.90;99.90;;;;;;5098400;28;19920;-67
2023/07/27 07:24:50;;;;;;;;;;;12.90;99.90;;;;;;5103469;28;20724;-67
2023/07/27 07:27:16;;;;;;;3.90;2.20;;;13.00;99.90;;;;;;5104256;28;19969;-66
2023/07/27 07:29:41;;;;;;;5.63;2.33;;;13.00;99.90;;;;;;5087849;28;20727;-68
2023/07/27 07:32:07;;;;;;;;;;;13.00;99.90;;;;;;5095882;28;20040;-65
2023/07/27 07:34:35;;;;;;;2.63;1.90;;;13.00;99.90;;;;;;5104487;28;19927;-64
2023/07/27 07:37:01;;;;;;;2.40;1.52;;;13.00;99.90;;;;;;5098414;28;20480;-67
2023/07/27 07:39:27;;;;;;;;;;;13.00;99.90;;;;;;5092959;27;20113;-66
2023/07/27 07:41:52;;;;;;;3.75;1.70;;;13.10;99.90;;;;;;5089336;28;19916;-63
2023/07/27 07:44:18;;;;;;;;;;;13.10;99.90;;;;;;5104640;28;20036;-66
2023/07/27 07:46:43;;;;;;;3.45;1.67;;;13.10;99.90;;;;;;5107934;28;19947;-65
2023/07/27 07:49:09;;;;;;;;;;;13.10;99.90;;;;;;5091690;27;20040;-63
2023/07/27 07:51:34;;;;;;;4.72;1.48;;;13.10;99.90;;;;;;5086581;28;19920;-65
2023/07/27 07:54:00;;;;;;;;;;;13.00;99.90;;;;;;5103989;27;20039;-64
2023/07/27 07:56:26;;;;;;;1.73;1.30;;;13.00;99.90;;;;;;5108040;28;19919;-65
2023/07/27 07:58:51;;;;;;;;;;;13.00;99.90;;;;;;5099273;28;20028;-64
2023/07/27 08:01:17;;;;;;;1.90;1.23;;;13.00;99.90;;;;;;5099314;28;19919;-65
2023/07/27 08:03:43;;;;;;;;;;;13.00;99.90;;;;;;5099402;28;20044;-63
2023/07/27 08:06:11;;;;;;;3.25;1.20;;;13.00;99.90;;;;;;5084766;28;19928;-65
2023/07/27 08:08:37;;;;;;;2.75;1.20;;;13.00;99.90;;;;;;5095529;28;20613;-65
2023/07/27 08:11:03;;;;;;;;;;;13.00;99.90;;;;;;5089044;28;20091;-65
2023/07/27 08:13:29;;;;;;;1.15;0.98;;;12.90;99.90;;;;;;5100666;28;19919;-65
2023/07/27 08:15:55;;;;;;;1.58;1.02;;;12.90;99.90;;;;;;5108488;28;20043;-65
2023/07/27 08:18:22;;;;;;;;;;;12.90;99.90;;;;;;5096497;28;20036;-64
2023/07/27 08:21:01;;;;;;;1.13;0.55;;;12.90;99.90;;;;;;5101447;28;19933;-63
2023/07/27 08:23:27;;;;;;;1.70;0.60;;;13.00;99.90;;;;;;5107606;27;20043;-66
2023/07/27 08:25:53;;;;;;;1.75;1.15;;;13.00;99.90;;;;;;5089211;28;20073;-63
2023/07/27 08:28:22;;;;;;;;;;;13.00;99.90;;;;;;5106039;28;20044;-64
2023/07/27 08:30:48;;;;;;;1.63;0.80;;;13.00;99.90;;;;;;5086212;28;19919;-65
2023/07/27 08:33:14;;;;;;;1.85;0.85;;;13.00;99.90;;;;;;5103341;28;20177;-65
2023/07/27 08:35:40;;;;;;;;;;;13.00;99.90;;;;;;5091617;28;20556;-65
2023/07/27 08:38:06;;;;;;;2.28;0.98;;;13.00;99.90;;;;;;5090421;27;19930;-65
2023/07/27 08:40:31;;;;;;;;;;;13.00;99.90;;;;;;5096508;28;20054;-68
2023/07/27 08:42:57;;;;;;;0.32;0.30;;;13.00;99.90;;;;;;5076426;28;19916;-65
2023/07/27 08:45:23;;;;;;;0.47;0.30;;;13.00;99.90;;;;;;5102744;28;20579;-63
2023/07/27 08:47:52;;;;;;;0.45;0.20;;;13.00;99.90;;;;;;5102174;28;20044;-65
2023/07/27 08:50:19;;;;;;;0.35;0.30;;;13.00;99.90;;;;;;5096030;28;20040;-65
2023/07/27 08:52:46;;;;;;;0.68;0.28;;;13.00;99.90;;;;;;5105698;28;20380;-63
2023/07/27 08:55:12;;;;;;;0.40;0.20;;;13.10;99.90;;;;;;5102947;28;20032;-64
2023/07/27 08:57:38;;;;;;;;;;;13.10;99.90;;;;;;5107237;28;20119;-65
2023/07/27 09:00:04;;;;;;;0.50;0.30;;;13.10;99.90;;;;;;5096553;28;19966;-66
2023/07/27 09:02:30;;;;;;;0.65;0.20;;;13.20;99.90;;;;;;5105701;28;20213;-67
2023/07/27 09:04:56;;;;;;;;;;;13.20;99.90;;;;;;5098411;28;20774;-66
2023/07/27 09:07:21;;;;;;;0.57;0.40;;;13.30;99.90;;;;;;5086780;28;20430;-70
2023/07/27 09:09:53;;;;;;;;;;;13.30;99.90;;;;;;5099282;28;20109;-66
2023/07/27 09:12:22;;;;;;;0.40;0.30;;;13.30;99.90;;;;;;5099698;28;19919;-64
2023/07/27 09:14:48;;;;;;;0.45;0.30;;;13.30;99.90;;;;;;5092734;28;20036;-62
2023/07/27 09:17:14;;;;;;;;;;;13.40;99.90;;;;;;5093401;28;20109;-65
2023/07/27 09:19:43;;;;;;;0.35;0.22;;;13.40;99.90;;;;;;5104547;28;19920;-63
2023/07/27 09:22:11;;;;;;;1.75;0.50;;;13.40;99.90;;;;;;5097208;28;20074;-66
2023/07/27 09:24:37;;;;;;;0.85;0.47;;;13.50;99.90;;;;;;5095676;28;20127;-66
2023/07/27 09:27:08;;;;;;;;;;;13.50;99.90;;;;;;5107041;28;20138;-65
2023/07/27 09:29:33;;;;;;;0.20;0.10;;;13.50;99.90;;;;;;5103886;28;20517;-64
2023/07/27 09:31:59;;;;;;;;;;;13.50;99.90;;;;;;5085802;28;20110;-66
2023/07/27 09:34:28;;;;;;;0.30;0.30;;;13.60;99.90;;;;;;5085305;28;19926;-64
2023/07/27 09:37:01;;;;;;;5.47;0.20;;;13.60;99.90;;;;;;5105567;28;20082;-66
2023/07/27 09:39:28;;;;;;;0.13;0.13;;;13.70;99.90;;;;;;5089336;27;20043;-63
2023/07/27 09:41:54;;;;;;;0.20;0.10;;;13.70;99.90;;;;;;5093285;28;20074;-65
2023/07/27 09:44:21;;;;;;;1.20;0.20;;;13.80;99.90;;;;;;5081721;28;20126;-65
2023/07/27 09:46:47;;;;;;;1.10;0.28;;;13.90;99.90;;;;;;5101556;28;20563;-64
2023/07/27 09:49:14;;;;;;;;;;;14.00;99.90;;;;;;5089188;28;20123;-66
2023/07/27 09:51:40;;;;;;;0.28;0.20;;;14.00;99.90;;;;;;5086960;28;19916;-65
2023/07/27 09:54:06;;;;;;;;;;;14.10;99.90;;;;;;5086142;28;20097;-64
2023/07/27 09:56:33;;;;;;;1.67;0.30;;;14.20;99.90;;;;;;5100370;27;21092;-66
2023/07/27 09:58:59;;;;;;;0.60;0.20;;;14.30;99.90;;;;;;5087499;28;20044;-64
2023/07/27 10:01:25;;;;;;;0.10;0.10;;;14.30;99.90;;;;;;5084491;28;20556;-65
2023/07/27 10:03:57;;;;;;;2.35;0.30;;;14.40;99.90;;;;;;5083803;28;20032;-64
2023/07/27 10:06:24;;;;;;;0.10;0.10;;;14.40;99.90;;;;;;5083669;28;20039;-64
2023/07/27 10:08:49;;;;;;;0.30;0.20;;;14.40;99.90;;;;;;5096516;28;20063;-68
2023/07/27 10:11:15;;;;;;;;;;;14.40;99.90;;;;;;5095276;27;20060;-66
2023/07/27 10:13:43;;;;;;;2.30;0.20;;;14.50;99.90;;;;;;5090561;28;19926;-64
2023/07/27 10:16:11;;;;;;;0.70;0.20;;;14.50;99.90;;;;;;5091200;28;20404;-64
2023/07/27 10:18:46;;;;;;;0.20;0.20;;;14.50;99.90;;;;;;5092277;28;20035;-64
2023/07/27 10:21:22;;;;;;;0.10;0.10;;;14.60;99.90;;;;;;5095708;28;20097;-66
2023/07/27 10:24:08;;;;;;;0.30;0.20;;;14.50;99.90;;;;;;5098997;28;20097;-67
2023/07/27 10:26:49;;;;;;;0.47;0.10;;;14.50;99.90;;;;;;5095267;28;20488;-66
2023/07/27 10:29:17;;;;;;;0.20;0.20;;;14.50;99.90;;;;;;5090158;28;20056;-67
2023/07/27 10:31:58;;;;;;;0.13;0.13;;;14.40;99.90;;;;;;5094958;28;20100;-67
2023/07/27 10:34:25;;;;;;;0.17;0.10;;;14.40;99.90;;;;;;5086652;28;20160;-66
2023/07/27 10:37:04;;;;;;;0.10;0.10;;;14.50;99.90;;;;;;5099676;28;20055;-66
2023/07/27 10:39:31;;;;;;;1.67;0.30;;;14.50;99.90;;;;;;5093896;28;20048;-67
2023/07/27 10:42:01;;;;;;;1.85;0.35;;;14.40;99.90;;;;;;5095631;28;21347;-66
2023/07/27 10:44:44;;;;;;;0.77;0.20;;;14.40;99.90;;;;;;5096310;28;20088;-66
2023/07/27 10:47:31;;;;;;;0.30;0.10;;;14.40;99.90;;;;;;5092381;28;20504;-66
2023/07/27 10:49:58;;;;;;;0.20;0.10;;;14.40;99.90;;;;;;5088905;28;20044;-66
2023/07/27 10:52:34;;;;;;;0.77;0.55;;;14.40;99.90;;;;;;5095236;28;20421;-66
2023/07/27 10:55:03;;;;;;;0.85;0.20;;;14.40;99.90;;;;;;5101771;28;20031;-67
2023/07/27 10:57:31;;;;;;;0.52;0.20;;;14.30;99.90;;;;;;5101242;28;20122;-67
2023/07/27 10:59:58;;;;;;;1.08;0.20;;;14.40;99.90;;;;;;5102654;28;20507;-65
2023/07/27 11:02:34;;;;;;;3.17;0.30;;;14.40;99.90;;;;;;5094192;28;20499;-64
2023/07/27 11:05:03;;;;;;;0.40;0.25;;;14.50;99.90;;;;;;5094377;28;20071;-67
2023/07/27 11:07:34;;;;;;;1.75;0.10;;;14.60;99.90;;;;;;5100092;28;20059;-66
2023/07/27 11:10:08;;;;;;;0.25;0.10;;;14.60;99.90;;;;;;5063653;28;20051;-65
2023/07/27 11:12:47;;;;;;;0.20;0.20;;;14.70;99.90;;;;;;5101605;28;20024;-66
2023/07/27 11:15:23;;;;;;;0.20;0.20;;;14.80;99.90;;;;;;5098671;28;20044;-66
2023/07/27 11:17:50;;;;;;;0.45;0.10;;;15.00;99.90;;;;;;5096136;28;20479;-65
2023/07/27 11:20:21;;;;;;;0.50;0.20;;;15.00;99.90;;;;;;5092244;28;20073;-67
2023/07/27 11:22:47;;;;;;;1.40;0.20;;;15.10;99.90;;;;;;5094838;28;20028;-66
2023/07/27 11:25:13;;;;;;;0.20;0.20;;;15.10;99.90;;;;;;5102588;28;20059;-66
2023/07/27 11:27:39;;;;;;;;;;;15.10;99.90;;;;;;5103345;28;20051;-68
2023/07/27 11:30:17;;;;;;;0.10;0.10;;;15.20;99.90;;;;;;5100749;28;20568;-66
2023/07/27 11:32:43;;;;;;;0.20;0.13;;;15.30;99.90;;;;;;5094314;28;20079;-64
2023/07/27 11:35:09;;;;;;;0.40;0.20;;;15.30;99.90;;;;;;5098520;28;20411;-66
2023/07/27 11:37:34;;;;;;;;;;;15.40;99.90;;;;;;5090920;28;20088;-65
2023/07/27 11:40:00;;;;;;;0.10;0.10;;;15.40;99.90;;;;;;5084635;28;20659;-67
2023/07/27 11:42:43;;;;;;;;;;;15.50;99.90;;;;;;5096146;28;20082;-64
2023/07/27 11:45:11;;;;;;;0.10;0.10;;;15.40;99.90;;;;;;5103067;28;19915;-66
2023/07/27 11:47:38;;;;;;;1.70;0.20;;;15.40;99.90;;;;;;5097601;28;20560;-66
2023/07/27 11:50:08;;;;;;;0.30;0.20;;;15.50;99.90;;;;;;5094681;28;20044;-65
2023/07/27 11:52:37;;;;;;;0.40;0.10;;;15.60;99.90;;;;;;5078061;28;20032;-64
2023/07/27 11:55:03;;;;;;;0.10;0.10;;;15.70;99.90;;;;;;5065776;28;20123;-65
2023/07/27 11:57:30;;;;;;;0.30;0.20;;;15.60;99.90;;;;;;5091973;28;20082;-65
2023/07/27 12:00:13;;;;;;;0.20;0.20;;;15.60;99.90;;;;;;5081791;28;20051;-67
2023/07/27 12:02:40;;;;;;;1.10;0.22;;;15.60;99.90;;;;;;5099317;28;20468;-66
2023/07/27 12:05:06;;;;;;;0.30;0.10;;;15.60;99.90;;;;;;5093830;28;20097;-65
2023/07/27 12:07:32;;;;;;;;;;;15.60;99.90;;;;;;5094488;28;20528;-64
2023/07/27 12:09:58;;;;;;;0.22;0.10;;;15.60;99.90;;;;;;5087619;28;19981;-66
2023/07/27 12:12:24;;;;;;;;;;;15.60;99.90;;;;;;5101342;28;20036;-65
2023/07/27 12:14:54;;;;;;;0.40;0.10;;;15.70;99.90;;;;;;5084845;28;20283;-66
2023/07/27 12:17:23;;;;;;;0.10;0.10;;;15.70;99.90;;;;;;5098681;28;20051;-66
2023/07/27 12:19:48;;;;;;;0.10;0.10;;;15.80;99.90;;;;;;5079281;28;20035;-65
2023/07/27 12:22:14;;;;;;;;;;;15.80;99.90;;;;;;5103202;28;20118;-66
2023/07/27 12:24:49;;;;;;;0.50;0.30;;;15.90;99.90;;;;;;5087337;28;20026;-66
2023/07/27 12:27:14;;;;;;;0.50;0.25;;;15.90;99.90;;;;;;5097505;27;20047;-65
2023/07/27 12:29:40;;;;;;;;;;;15.90;99.90;;;;;;5087559;28;20424;-65
2023/07/27 12:32:06;;;;;;;0.20;0.20;;;15.80;99.90;;;;;;5091367;28;20435;-65
2023/07/27 12:34:32;;;;;;;0.98;0.10;;;15.80;99.90;;;;;;5103083;28;20039;-66
2023/07/27 12:36:58;;;;;;;0.30;0.10;;;15.70;99.90;;;;;;5107119;28;20043;-67
2023/07/27 12:39:23;;;;;;;;;;;15.70;99.90;;;;;;5106444;28;20047;-66
2023/07/27 12:41:49;;;;;;;0.20;0.20;;;15.70;99.90;;;;;;5079810;28;19919;-65
2023/07/27 12:44:14;;;;;;;;;;;15.60;99.90;;;;;;5083416;28;20047;-67
2023/07/27 12:46:40;;;;;;;0.10;0.10;;;15.70;99.90;;;;;;5103238;28;20474;-69
2023/07/27 12:49:06;;;;;;;;;;;15.70;99.90;;;;;;5091251;28;20036;-66
2023/07/27 12:51:31;;;;;;;0.10;0.10;;;15.70;99.90;;;;;;5106244;28;19915;-66
2023/07/27 12:53:57;;;;;;;1.42;0.30;;;15.70;99.90;;;;;;5088517;28;20046;-66
2023/07/27 12:56:22;;;;;;;;;;;15.70;99.90;;;;;;5107682;28;20062;-66
2023/07/27 12:58:48;;;;;;;0.20;0.20;;;15.70;99.90;;;;;;5103201;27;19915;-67
2023/07/27 13:01:14;;;;;;;;;;;15.80;99.90;;;;;;5108853;27;20054;-66
2023/07/27 13:03:39;;;;;;;0.52;0.22;;;15.80;99.90;;;;;;5113432;27;19915;-65
2023/07/27 13:06:05;;;;;;;;;;;15.70;99.90;;;;;;5109023;27;20046;-65
2023/07/27 13:08:30;;;;;;;0.43;0.40;;;15.70;99.90;;;;;;5115095;27;20567;-65
2023/07/27 13:10:56;;;;;;;0.20;0.20;;;15.70;99.90;;;;;;5098814;28;20032;-64